Time;durP1;ratioP1;P1;durP2;ratioP2;P2;SDS_P1;SDS_P2;PMS_P1;PMS_P2;Temp;Humidity;BMP_temperature;BMP_pressure;BME280_temperature;BME280_humidity;BME280_pressure;Samples;Min_cycle;Max_cycle;Signal;HPM_P1;HPM_P2
2022/08/18 00:02:06;;;;;;;11.70;8.90;;;18.00;99.90;;;;;;5017578;28;20056;-77
2022/08/18 00:04:37;;;;;;;11.30;9.20;;;18.00;99.90;;;;;;5035623;28;20419;-76
2022/08/18 00:07:06;;;;;;;11.93;8.45;;;18.00;99.90;;;;;;5034856;28;20037;-76
2022/08/18 00:09:34;;;;;;;12.90;9.00;;;18.10;99.90;;;;;;5017432;28;20428;-75
2022/08/18 00:12:04;;;;;;;16.83;8.75;;;18.00;99.90;;;;;;5017419;28;20049;-75
2022/08/18 00:14:33;;;;;;;11.77;8.48;;;18.00;99.90;;;;;;5016984;28;20083;-76
2022/08/18 00:17:01;;;;;;;10.10;8.38;;;18.00;99.90;;;;;;5017626;28;20042;-76
2022/08/18 00:19:28;;;;;;;12.18;8.23;;;18.00;99.90;;;;;;5017393;28;20404;-76
2022/08/18 00:21:56;;;;;;;10.30;9.25;;;17.90;99.90;;;;;;5017498;28;20115;-76
2022/08/18 00:24:23;;;;;;;11.50;9.40;;;17.90;99.90;;;;;;5035692;28;20041;-76
2022/08/18 00:26:50;;;;;;;14.02;9.95;;;17.90;99.90;;;;;;5021897;28;20045;-78
2022/08/18 00:29:17;;;;;;;14.73;9.18;;;17.80;99.90;;;;;;5046310;28;20076;-76
2022/08/18 00:31:46;;;;;;;12.68;9.65;;;17.90;99.90;;;;;;5037803;28;20098;-76
2022/08/18 00:34:13;;;;;;;13.30;9.98;;;17.80;99.90;;;;;;5056098;28;20064;-76
2022/08/18 00:36:41;;;;;;;14.43;9.30;;;17.80;99.90;;;;;;5056465;28;20122;-76
2022/08/18 00:39:08;;;;;;;13.50;9.55;;;17.80;99.90;;;;;;5067585;28;20045;-77
2022/08/18 00:41:35;;;;;;;13.70;9.55;;;17.80;99.90;;;;;;5058944;28;20049;-77
2022/08/18 00:44:03;;;;;;;12.00;9.02;;;17.80;99.90;;;;;;5041075;28;20080;-76
2022/08/18 00:46:33;;;;;;;12.65;9.25;;;17.70;99.90;;;;;;5041369;28;20037;-77
2022/08/18 00:49:03;;;;;;;11.02;9.30;;;17.60;99.90;;;;;;5038875;28;20116;-78
2022/08/18 00:51:38;;;;;;;13.45;9.60;;;17.60;99.90;;;;;;5053082;28;20045;-79
2022/08/18 00:54:11;;;;;;;13.82;9.50;;;17.50;99.90;;;;;;5045876;28;20041;-78
2022/08/18 00:56:44;;;;;;;10.57;9.48;;;17.50;99.90;;;;;;5060588;28;20057;-77
2022/08/18 00:59:15;;;;;;;13.15;9.57;;;17.50;99.90;;;;;;5040347;28;20045;-78
2022/08/18 01:01:44;;;;;;;12.43;9.68;;;17.60;99.90;;;;;;5024356;28;20060;-78
2022/08/18 01:04:17;;;;;;;12.85;9.32;;;17.60;99.90;;;;;;5041722;28;20508;-77
2022/08/18 01:06:48;;;;;;;11.45;9.68;;;17.60;99.90;;;;;;5040019;28;20033;-77
2022/08/18 01:09:17;;;;;;;12.15;8.98;;;17.60;99.90;;;;;;5041232;28;20091;-77
2022/08/18 01:11:44;;;;;;;10.48;8.93;;;17.60;99.90;;;;;;5040995;28;20041;-76
2022/08/18 01:14:17;;;;;;;15.02;9.85;;;17.60;99.90;;;;;;5023140;28;20060;-76
2022/08/18 01:22:24;;;;;;;13.13;9.90;;;17.60;99.90;;;;;;5044275;28;20041;-76
2022/08/18 01:27:40;;;;;;;12.27;9.57;;;17.50;99.90;;;;;;5005884;28;20317;-77
2022/08/18 01:30:12;;;;;;;10.27;9.02;;;17.50;99.90;;;;;;5048119;28;20109;-76
2022/08/18 01:32:41;;;;;;;12.88;8.95;;;17.50;99.90;;;;;;5055049;28;20036;-78
2022/08/18 01:35:10;;;;;;;12.25;9.07;;;17.50;99.90;;;;;;5023977;28;20497;-78
2022/08/18 01:37:40;;;;;;;11.68;8.60;;;17.50;99.90;;;;;;5041079;28;20477;-80
2022/08/18 01:40:11;;;;;;;15.35;8.98;;;17.50;99.90;;;;;;5040096;28;20049;-75
2022/08/18 01:42:42;;;;;;;12.63;9.05;;;17.50;99.90;;;;;;5040453;28;20064;-79
2022/08/18 01:45:10;;;;;;;13.35;9.57;;;17.50;99.90;;;;;;5022510;28;20046;-77
2022/08/18 01:47:39;;;;;;;11.50;9.32;;;17.50;99.90;;;;;;5040588;28;20054;-78
2022/08/18 01:50:09;;;;;;;20.17;15.73;;;17.50;99.90;;;;;;5028789;28;20564;-77
2022/08/18 01:52:36;;;;;;;11.45;9.25;;;17.40;99.90;;;;;;5021972;28;20049;-77
2022/08/18 01:55:06;;;;;;;12.73;9.27;;;17.40;99.90;;;;;;5027363;28;20420;-78
2022/08/18 01:57:41;;;;;;;13.77;9.20;;;17.40;99.90;;;;;;5060072;28;20131;-78
2022/08/18 02:00:11;;;;;;;26.92;20.52;;;17.40;99.90;;;;;;5028601;28;20069;-77
2022/08/18 02:02:40;;;;;;;14.98;12.65;;;17.40;99.90;;;;;;5040016;28;20108;-77
2022/08/18 02:05:12;;;;;;;13.32;10.48;;;17.40;99.90;;;;;;5025444;28;20072;-78
2022/08/18 02:07:39;;;;;;;11.23;9.27;;;17.40;99.90;;;;;;5033814;28;20072;-78
2022/08/18 02:10:09;;;;;;;11.27;9.35;;;17.30;99.90;;;;;;5024509;28;20393;-79
2022/08/18 02:12:38;;;;;;;14.07;9.70;;;17.30;99.90;;;;;;5041932;28;20041;-79
2022/08/18 02:15:06;;;;;;;11.52;9.25;;;17.20;99.90;;;;;;5023146;28;20041;-79
2022/08/18 02:17:38;;;;;;;11.63;9.70;;;17.20;99.90;;;;;;5042159;28;20037;-79
2022/08/18 02:20:07;;;;;;;12.80;9.23;;;17.20;99.90;;;;;;5024309;28;20464;-77
2022/08/18 02:22:35;;;;;;;13.32;10.55;;;17.20;99.90;;;;;;5024811;28;20049;-77
2022/08/18 02:25:02;;;;;;;15.15;9.70;;;17.10;99.90;;;;;;5042823;28;20041;-79
2022/08/18 02:27:29;;;;;;;12.82;10.55;;;17.10;99.90;;;;;;5024534;28;20053;-78
2022/08/18 02:30:00;;;;;;;12.77;10.35;;;17.10;99.90;;;;;;5023386;28;20057;-80
2022/08/18 02:32:28;;;;;;;13.30;9.77;;;17.00;99.90;;;;;;5047094;28;20049;-79
2022/08/18 02:34:55;;;;;;;13.82;10.60;;;17.00;99.90;;;;;;5051811;28;20045;-80
2022/08/18 02:37:23;;;;;;;16.40;10.18;;;16.90;99.90;;;;;;5032345;28;20049;-78
2022/08/18 02:39:50;;;;;;;14.18;9.27;;;16.90;99.90;;;;;;5049868;28;20038;-81
2022/08/18 02:42:18;;;;;;;12.35;9.80;;;17.00;99.90;;;;;;5050409;28;20053;-78
2022/08/18 02:44:45;;;;;;;12.55;9.60;;;17.10;99.90;;;;;;5050294;28;20049;-79
2022/08/18 02:47:14;;;;;;;12.90;9.73;;;17.10;99.90;;;;;;5032856;28;20060;-78
2022/08/18 02:49:41;;;;;;;10.95;9.07;;;17.10;99.90;;;;;;5014116;28;20054;-79
2022/08/18 02:52:09;;;;;;;12.70;9.52;;;17.10;99.90;;;;;;5031432;28;20050;-79
2022/08/18 02:54:37;;;;;;;12.57;9.50;;;17.00;99.90;;;;;;5005597;28;20117;-77
2022/08/18 02:57:09;;;;;;;12.30;9.70;;;17.00;99.90;;;;;;5056361;28;20053;-76
2022/08/18 02:59:38;;;;;;;13.07;9.65;;;17.00;99.90;;;;;;5029622;28;20041;-78
2022/08/18 03:02:07;;;;;;;13.35;10.40;;;17.00;99.90;;;;;;5036696;28;20037;-76
2022/08/18 03:04:36;;;;;;;14.27;10.02;;;17.00;99.90;;;;;;5036735;28;20037;-76
2022/08/18 03:07:06;;;;;;;11.65;9.43;;;17.00;99.90;;;;;;5036942;28;20469;-76
2022/08/18 03:09:34;;;;;;;14.27;9.75;;;17.00;99.90;;;;;;5039389;28;20121;-77
2022/08/18 03:12:02;;;;;;;12.25;9.93;;;17.00;99.90;;;;;;5032544;28;20072;-77
2022/08/18 03:14:30;;;;;;;12.77;9.73;;;17.00;99.90;;;;;;5041482;28;20052;-76
2022/08/18 03:16:57;;;;;;;11.35;9.38;;;16.90;99.90;;;;;;5019372;28;20041;-78
2022/08/18 03:19:27;;;;;;;13.60;9.52;;;16.90;99.90;;;;;;5036120;28;20053;-75
2022/08/18 03:21:57;;;;;;;13.38;10.43;;;16.90;99.90;;;;;;5036539;28;20042;-76
2022/08/18 03:24:26;;;;;;;15.43;10.77;;;16.80;99.90;;;;;;5036651;28;20037;-77
2022/08/18 03:26:55;;;;;;;15.18;10.50;;;16.80;99.90;;;;;;5036265;28;20436;-76
2022/08/18 03:29:23;;;;;;;13.63;10.35;;;16.70;99.90;;;;;;5026541;28;20049;-77
2022/08/18 03:31:51;;;;;;;10.45;9.10;;;16.70;99.90;;;;;;5055609;28;20496;-75
2022/08/18 03:34:19;;;;;;;11.35;9.80;;;16.80;99.90;;;;;;5055546;28;20041;-76
2022/08/18 03:36:48;;;;;;;16.13;9.82;;;16.80;99.90;;;;;;5056339;28;20037;-76
2022/08/18 03:39:17;;;;;;;12.95;8.85;;;16.80;99.90;;;;;;5026237;28;20046;-77
2022/08/18 03:41:45;;;;;;;10.73;8.90;;;16.80;99.90;;;;;;5018467;28;20046;-77
2022/08/18 03:44:14;;;;;;;13.63;9.63;;;16.80;99.90;;;;;;5035229;28;20064;-77
2022/08/18 03:46:43;;;;;;;12.38;9.10;;;16.80;99.90;;;;;;5035622;28;20109;-77
2022/08/18 03:49:12;;;;;;;12.75;9.98;;;16.80;99.90;;;;;;5039872;28;20378;-75
2022/08/18 03:51:42;;;;;;;13.13;10.10;;;16.80;99.90;;;;;;5017995;28;20408;-76
2022/08/18 03:54:12;;;;;;;13.73;10.43;;;16.80;99.90;;;;;;5017561;28;20152;-76
2022/08/18 03:56:42;;;;;;;11.90;9.80;;;16.80;99.90;;;;;;5076467;22;20072;-79
2022/08/18 03:59:15;;;;;;;15.20;9.70;;;16.90;99.90;;;;;;5089083;28;20063;-81
2022/08/18 04:01:43;;;;;;;11.60;9.85;;;16.90;99.90;;;;;;5103988;28;20036;-81
2022/08/18 04:04:13;;;;;;;11.55;9.43;;;16.90;99.90;;;;;;5085981;28;20518;-81
2022/08/18 04:06:43;;;;;;;11.35;9.65;;;16.90;99.90;;;;;;5060932;28;20144;-81
2022/08/18 04:09:12;;;;;;;12.65;10.05;;;17.00;99.90;;;;;;5062165;28;20045;-81
2022/08/18 04:11:42;;;;;;;15.55;10.00;;;17.00;99.90;;;;;;5063090;28;20076;-81
2022/08/18 04:14:10;;;;;;;12.27;9.50;;;17.10;99.90;;;;;;5062200;28;20037;-81
2022/08/18 04:16:38;;;;;;;14.88;10.43;;;17.10;99.90;;;;;;5044965;28;20041;-81
2022/08/18 04:19:06;;;;;;;11.43;9.82;;;17.10;99.90;;;;;;5065225;28;20036;-81
2022/08/18 04:21:37;;;;;;;16.25;9.93;;;17.30;99.90;;;;;;5072120;28;20041;-81
2022/08/18 04:24:06;;;;;;;16.10;10.45;;;17.50;99.90;;;;;;5074073;28;20049;-81
2022/08/18 04:26:36;;;;;;;18.92;10.50;;;17.70;99.90;;;;;;5067675;28;20041;-81
2022/08/18 04:29:05;;;;;;;11.98;9.75;;;17.90;99.90;;;;;;5068763;28;20090;-81
2022/08/18 04:31:32;;;;;;;10.63;9.05;;;18.00;99.90;;;;;;5087173;28;20072;-82
2022/08/18 04:34:02;;;;;;;16.17;9.48;;;18.10;99.90;;;;;;5072800;28;20052;-81
2022/08/18 04:36:30;;;;;;;11.75;9.77;;;17.90;99.90;;;;;;5068911;28;20049;-80
2022/08/18 04:38:58;;;;;;;15.15;10.43;;;18.00;99.90;;;;;;5064977;28;20051;-80
2022/08/18 04:41:27;;;;;;;13.82;9.40;;;18.10;99.90;;;;;;5045453;28;20045;-80
2022/08/18 04:43:54;;;;;;;15.68;9.63;;;18.20;99.90;;;;;;5049014;28;20049;-80
2022/08/18 04:46:23;;;;;;;14.93;10.00;;;18.40;99.90;;;;;;5052688;28;20476;-79
2022/08/18 04:48:51;;;;;;;16.25;11.93;;;18.50;99.90;;;;;;5069934;28;20041;-79
2022/08/18 04:51:20;;;;;;;13.45;9.75;;;18.50;99.90;;;;;;5069906;28;20055;-79
2022/08/18 04:53:47;;;;;;;12.77;9.63;;;18.60;99.90;;;;;;5051226;28;20049;-80
2022/08/18 04:56:19;;;;;;;24.48;17.73;;;18.70;99.90;;;;;;5079370;28;20056;-80
2022/08/18 04:58:50;;;;;;;24.65;16.80;;;18.90;99.90;;;;;;5085428;28;20171;-80
2022/08/18 05:01:18;;;;;;;13.82;9.73;;;19.10;99.90;;;;;;5085835;28;20442;-81
2022/08/18 05:03:50;;;;;;;18.73;11.10;;;19.20;99.90;;;;;;5086191;28;20117;-79
2022/08/18 05:06:18;;;;;;;13.57;9.80;;;19.40;99.90;;;;;;5084315;28;20049;-79
2022/08/18 05:08:47;;;;;;;16.17;10.25;;;19.60;99.90;;;;;;5082596;28;20064;-79
2022/08/18 05:11:14;;;;;;;19.55;10.52;;;19.70;99.90;;;;;;5081766;28;20051;-80
2022/08/18 05:13:42;;;;;;;13.70;10.52;;;19.60;99.90;;;;;;5084040;28;20123;-80
2022/08/18 05:16:10;;;;;;;21.40;10.98;;;19.60;99.90;;;;;;5081476;28;20055;-79
2022/08/18 05:18:39;;;;;;;15.88;9.50;;;19.80;99.90;;;;;;5083309;28;20040;-79
2022/08/18 05:21:13;;;;;;;15.65;9.07;;;19.90;99.90;;;;;;5080364;28;20110;-79
2022/08/18 05:23:41;;;;;;;14.32;9.85;;;20.10;99.90;;;;;;5080809;28;20044;-80
2022/08/18 05:26:08;;;;;;;16.70;10.23;;;20.30;99.90;;;;;;5085506;28;20044;-79
2022/08/18 05:28:36;;;;;;;18.08;11.90;;;20.40;99.90;;;;;;5073688;28;20045;-79
2022/08/18 05:31:08;;;;;;;22.85;14.40;;;20.40;99.90;;;;;;5100780;28;20040;-80
2022/08/18 05:33:37;;;;;;;20.55;13.32;;;20.50;99.90;;;;;;5102434;28;20067;-80
2022/08/18 05:36:11;;;;;;;15.27;10.30;;;20.70;99.90;;;;;;5100840;28;20046;-80
2022/08/18 05:38:51;;;;;;;22.10;12.43;;;21.00;99.90;;;;;;5092045;28;20082;-78
2022/08/18 05:41:24;;;;;;;14.48;10.10;;;21.20;99.90;;;;;;5081398;28;20103;-79
2022/08/18 05:43:52;;;;;;;15.30;10.85;;;21.50;99.90;;;;;;5083383;28;20056;-79
2022/08/18 05:46:21;;;;;;;15.00;9.43;;;21.70;99.90;;;;;;5080809;28;20052;-79
2022/08/18 05:48:49;;;;;;;48.67;15.05;;;21.90;99.90;;;;;;5064512;28;20049;-80
2022/08/18 05:51:33;;;;;;;16.73;11.13;;;22.00;99.90;;;;;;5063022;28;20048;-80
2022/08/18 05:56:49;;;;;;;17.85;11.25;;;22.30;99.90;;;;;;5062949;28;20057;-80
2022/08/18 05:59:22;;;;;;;12.60;9.95;;;22.70;99.90;;;;;;5084333;28;20116;-80
2022/08/18 06:01:56;;;;;;;19.00;10.38;;;22.70;99.90;;;;;;5079273;28;20043;-80
2022/08/18 06:04:39;;;;;;;16.60;11.10;;;23.00;99.90;;;;;;5079280;28;20041;-80
2022/08/18 06:07:13;;;;;;;13.90;9.75;;;23.40;99.90;;;;;;5075534;28;20459;-78
2022/08/18 06:09:44;;;;;;;15.38;9.15;;;23.40;99.90;;;;;;5080386;28;20055;-80
2022/08/18 06:12:21;;;;;;;38.42;12.93;;;23.50;99.90;;;;;;5063562;28;20077;-79
2022/08/18 06:14:48;;;;;;;27.63;11.77;;;23.80;99.90;;;;;;5068987;28;20071;-80
2022/08/18 06:17:47;;;;;;;16.48;10.25;;;24.10;99.90;;;;;;5088669;28;20044;-81
2022/08/18 06:20:22;;;;;;;16.60;9.70;;;24.10;99.90;;;;;;5084146;28;20487;-79
2022/08/18 06:22:57;;;;;;;15.20;10.32;;;24.50;99.90;;;;;;5111359;28;20047;-79
2022/08/18 06:25:34;;;;;;;14.30;9.38;;;24.60;99.90;;;;;;5100507;28;20049;-80
2022/08/18 06:28:05;;;;;;;15.13;9.48;;;24.60;99.90;;;;;;5099268;28;20036;-80
2022/08/18 06:30:50;;;;;;;18.65;9.77;;;24.50;99.90;;;;;;5087054;28;20051;-80
2022/08/18 06:33:38;;;;;;;15.48;10.40;;;24.70;99.90;;;;;;5085717;28;20483;-79
2022/08/18 06:36:14;;;;;;;14.60;9.63;;;24.90;99.90;;;;;;5085454;28;20041;-79
2022/08/18 06:38:56;;;;;;;15.85;10.27;;;25.10;99.90;;;;;;5074362;28;20047;-80
2022/08/18 06:41:34;;;;;;;17.20;10.52;;;25.10;99.90;;;;;;5061957;28;20036;-80
2022/08/18 06:44:04;;;;;;;14.07;11.55;;;25.40;99.90;;;;;;5071485;28;20052;-80
2022/08/18 06:46:41;;;;;;;15.32;11.40;;;25.80;99.90;;;;;;5082901;28;20211;-80
2022/08/18 06:49:10;;;;;;;13.05;9.73;;;26.10;99.90;;;;;;5083055;28;20522;-80
2022/08/18 06:51:38;;;;;;;14.95;8.88;;;26.10;99.90;;;;;;5083606;28;20123;-79
2022/08/18 06:54:25;;;;;;;11.07;8.50;;;26.00;99.90;;;;;;5083946;28;20059;-80
2022/08/18 06:56:54;;;;;;;12.60;9.10;;;25.90;99.90;;;;;;5066264;28;20106;-80
2022/08/18 06:59:25;;;;;;;13.98;8.90;;;25.90;99.90;;;;;;5063183;28;20256;-78
2022/08/18 07:01:56;;;;;;;13.63;8.70;;;26.10;99.90;;;;;;5079578;28;20045;-80
2022/08/18 07:04:32;;;;;;;14.50;8.98;;;26.00;99.90;;;;;;5079087;28;20047;-79
2022/08/18 07:07:11;;;;;;;14.85;8.15;;;26.30;99.90;;;;;;5080679;28;20052;-80
2022/08/18 07:09:40;;;;;;;12.20;8.63;;;26.60;99.90;;;;;;5081810;28;20043;-81
2022/08/18 07:12:10;;;;;;;9.85;7.75;;;26.80;99.90;;;;;;5084476;28;20040;-80
2022/08/18 07:14:46;;;;;;;13.00;8.40;;;26.90;99.90;;;;;;5084819;28;20067;-79
2022/08/18 07:17:21;;;;;;;11.43;8.20;;;27.10;99.90;;;;;;5084789;28;20060;-79
2022/08/18 07:20:07;;;;;;;13.18;8.45;;;26.90;99.90;;;;;;5084431;28;20086;-81
2022/08/18 07:22:53;;;;;;;13.43;7.93;;;27.10;99.90;;;;;;5078732;28;20146;-80
2022/08/18 07:25:25;;;;;;;10.45;7.90;;;27.20;99.90;;;;;;5064384;28;20114;-80
2022/08/18 07:27:55;;;;;;;12.98;9.02;;;27.20;99.90;;;;;;5069741;28;20552;-79
2022/08/18 07:30:35;;;;;;;10.82;7.55;;;27.30;99.90;;;;;;5101820;28;20044;-79
2022/08/18 07:33:11;;;;;;;11.60;10.25;;;27.40;99.90;;;;;;5083670;28;20078;-79
2022/08/18 07:35:44;;;;;;;15.23;11.68;;;27.70;99.90;;;;;;5082743;28;20040;-78
2022/08/18 07:38:23;;;;;;;16.70;9.27;;;27.80;99.90;;;;;;5082941;28;20398;-81
2022/08/18 07:40:57;;;;;;;12.40;7.97;;;28.00;99.90;;;;;;5083186;28;20109;-79
2022/08/18 07:43:28;;;;;;;13.07;8.00;;;28.10;99.90;;;;;;5082967;28;20075;-80
2022/08/18 07:46:02;;;;;;;13.38;7.78;;;28.10;99.90;;;;;;5084883;28;20045;-80
2022/08/18 07:48:33;;;;;;;10.60;8.02;;;28.40;99.90;;;;;;5081718;28;20051;-80
2022/08/18 07:51:09;;;;;;;18.13;8.55;;;28.70;99.90;;;;;;5083396;28;20050;-80
2022/08/18 07:53:50;;;;;;;10.50;8.45;;;29.10;99.90;;;;;;5082726;28;20066;-80
2022/08/18 07:56:24;;;;;;;13.35;8.20;;;29.30;99.90;;;;;;5080594;28;20477;-78
2022/08/18 07:58:58;;;;;;;9.75;8.02;;;29.40;99.90;;;;;;5065701;28;20044;-80
2022/08/18 08:01:34;;;;;;;13.65;7.95;;;29.40;99.90;;;;;;5082679;28;20055;-79
2022/08/18 08:04:11;;;;;;;12.32;9.05;;;29.40;99.90;;;;;;5083208;28;20049;-79
2022/08/18 08:06:43;;;;;;;9.77;7.68;;;29.70;99.90;;;;;;5083613;28;20088;-80
2022/08/18 08:09:20;;;;;;;11.65;8.75;;;29.90;99.50;;;;;;5084084;28;20075;-79
2022/08/18 08:11:55;;;;;;;14.38;11.05;;;29.90;99.00;;;;;;5083435;28;20036;-79
2022/08/18 08:14:39;;;;;;;12.13;9.98;;;30.00;99.20;;;;;;5087110;28;20094;-79
2022/08/18 08:17:16;;;;;;;14.30;9.10;;;30.20;99.90;;;;;;5070776;28;20044;-79
2022/08/18 08:20:12;;;;;;;11.65;8.50;;;30.20;99.90;;;;;;5090884;28;20040;-79
2022/08/18 08:22:48;;;;;;;9.95;8.25;;;30.40;99.90;;;;;;5086011;28;20060;-79
2022/08/18 08:25:24;;;;;;;11.05;7.38;;;30.60;99.90;;;;;;5084308;28;20048;-80
2022/08/18 08:28:06;;;;;;;11.25;7.78;;;30.50;99.90;;;;;;5084073;28;20044;-80
2022/08/18 08:30:37;;;;;;;12.35;9.25;;;30.60;99.90;;;;;;5083248;28;20044;-79
2022/08/18 08:33:10;;;;;;;11.38;9.23;;;30.60;99.90;;;;;;5083412;28;20048;-79
2022/08/18 08:35:45;;;;;;;16.02;11.30;;;30.60;99.90;;;;;;5069118;28;20078;-78
2022/08/18 08:38:18;;;;;;;11.57;8.63;;;30.80;99.90;;;;;;5096571;28;20049;-79
2022/08/18 08:40:53;;;;;;;11.80;8.32;;;31.00;99.90;;;;;;5098172;28;20044;-79
2022/08/18 08:43:29;;;;;;;13.90;9.93;;;31.20;99.90;;;;;;5079072;28;20042;-79
2022/08/18 08:46:07;;;;;;;13.75;9.50;;;31.20;99.90;;;;;;5075892;28;20044;-79
2022/08/18 08:48:41;;;;;;;10.50;7.53;;;31.40;99.90;;;;;;5087361;28;20050;-80
2022/08/18 08:51:27;;;;;;;11.32;7.53;;;31.30;99.40;;;;;;5083909;28;20454;-80
2022/08/18 08:53:59;;;;;;;11.57;7.85;;;31.20;99.60;;;;;;5083210;28;20044;-81
2022/08/18 08:56:30;;;;;;;10.38;8.07;;;31.40;99.50;;;;;;5057950;28;20531;-81
2022/08/18 08:59:04;;;;;;;10.90;8.00;;;31.50;99.20;;;;;;5061163;28;20052;-81
2022/08/18 09:01:40;;;;;;;16.10;9.07;;;31.50;98.40;;;;;;5064962;28;20045;-80
2022/08/18 09:04:31;;;;;;;13.73;8.18;;;31.70;96.40;;;;;;5066536;28;20041;-81
2022/08/18 09:07:12;;;;;;;9.57;7.40;;;31.80;95.90;;;;;;5066127;28;20041;-79
2022/08/18 09:10:07;;;;;;;11.43;7.85;;;31.90;95.20;;;;;;5069003;28;20047;-80
2022/08/18 09:12:54;;;;;;;11.67;7.10;;;31.80;95.00;;;;;;5073286;28;20496;-79
2022/08/18 09:15:53;;;;;;;8.52;7.07;;;31.70;94.40;;;;;;5072514;28;20063;-79
2022/08/18 09:18:46;;;;;;;11.48;8.18;;;31.60;94.70;;;;;;5073964;28;20037;-79
2022/08/18 09:21:35;;;;;;;9.88;8.32;;;31.70;94.40;;;;;;5085195;28;20040;-80
2022/08/18 09:24:17;;;;;;;11.80;7.28;;;31.70;94.60;;;;;;5084805;28;20060;-79
2022/08/18 09:26:50;;;;;;;10.45;7.43;;;31.70;94.10;;;;;;5082621;28;20049;-80
2022/08/18 09:29:22;;;;;;;13.00;7.65;;;31.80;94.10;;;;;;5081432;28;20067;-80
2022/08/18 09:32:29;;;;;;;10.02;8.10;;;32.00;93.50;;;;;;5082926;28;20533;-79
2022/08/18 09:35:09;;;;;;;10.57;8.18;;;32.20;93.20;;;;;;5080589;28;20048;-79
2022/08/18 09:41:30;;;;;;;13.85;9.00;;;32.30;92.60;;;;;;5079173;28;20106;-79
2022/08/18 09:43:27;;;;;;;;;;;32.70;92.30;;;;;;5063022;28;20047;-79
2022/08/18 09:45:59;;;;;;;11.82;8.43;;;32.90;91.20;;;;;;5065561;28;19925;-78
2022/08/18 09:48:33;;;;;;;13.07;9.07;;;32.90;90.90;;;;;;5069689;28;20033;-78
2022/08/18 09:51:17;;;;;;;9.20;6.88;;;33.00;90.90;;;;;;5079670;28;20094;-79
2022/08/18 09:54:12;;;;;;;13.73;8.27;;;33.00;90.10;;;;;;5082840;28;20109;-80
2022/08/18 09:57:16;;;;;;;9.70;6.78;;;33.00;89.70;;;;;;5087488;28;20441;-80
2022/08/18 10:00:19;;;;;;;12.25;9.32;;;33.00;90.00;;;;;;4988274;28;20042;-80
2022/08/18 10:03:14;;;;;;;12.57;9.20;;;33.10;89.40;;;;;;4986011;28;20105;-79
2022/08/18 10:05:58;;;;;;;11.25;9.02;;;33.30;88.00;;;;;;5079859;28;20098;-80
2022/08/18 10:09:03;;;;;;;16.30;8.68;;;33.30;87.50;;;;;;5105719;28;20048;-81
2022/08/18 10:11:51;;;;;;;13.95;9.85;;;33.40;86.80;;;;;;5100278;28;20040;-80
2022/08/18 10:14:36;;;;;;;11.70;8.25;;;33.40;86.40;;;;;;5085497;28;20064;-80
2022/08/18 10:17:09;;;;;;;;;;;33.40;83.40;;;;;;5086695;28;20036;-80
2022/08/18 10:19:49;;;;;;;11.13;6.47;;;33.50;83.60;;;;;;5087380;28;19924;-79
2022/08/18 10:22:37;;;;;;;18.55;11.73;;;33.50;82.60;;;;;;5086816;28;20044;-79
2022/08/18 10:25:07;;;;;;;13.35;8.20;;;33.60;85.20;;;;;;5086566;28;20055;-79
2022/08/18 10:27:47;;;;;;;12.00;7.93;;;33.70;81.50;;;;;;5077480;28;20040;-80
2022/08/18 10:30:47;;;;;;;10.05;7.60;;;33.70;80.90;;;;;;5083950;28;20131;-79
2022/08/18 10:33:58;;;;;;;10.80;5.82;;;33.70;78.20;;;;;;5076506;28;20078;-80
2022/08/18 10:36:55;;;;;;;10.60;6.38;;;33.50;78.00;;;;;;5073493;28;20546;-79
2022/08/18 10:39:42;;;;;;;12.55;7.03;;;33.50;79.30;;;;;;5022351;28;20070;-80
2022/08/18 10:42:14;;;;;;;13.15;8.27;;;33.60;80.50;;;;;;5061034;28;20048;-79
2022/08/18 10:44:45;;;;;;;11.05;6.65;;;33.70;80.80;;;;;;5085956;28;20059;-80
2022/08/18 10:47:22;;;;;;;9.27;6.53;;;33.70;79.30;;;;;;5085543;28;20032;-80
2022/08/18 10:49:51;;;;;;;11.25;6.15;;;33.80;76.90;;;;;;5086189;28;20037;-80
2022/08/18 10:52:49;;;;;;;11.75;7.95;;;33.70;71.30;;;;;;5086561;28;20045;-80
2022/08/18 10:55:31;;;;;;;10.77;7.25;;;33.70;71.30;;;;;;5084396;28;20059;-79
2022/08/18 10:58:17;;;;;;;11.68;5.82;;;33.70;70.70;;;;;;5085069;28;20045;-79
2022/08/18 11:00:54;;;;;;;11.02;7.25;;;33.90;71.00;;;;;;5085548;28;20102;-79
2022/08/18 11:03:35;;;;;;;8.98;5.68;;;34.00;71.20;;;;;;5086412;28;20483;-80
2022/08/18 11:06:05;;;;;;;9.50;6.72;;;34.10;70.80;;;;;;5067165;28;20053;-80
2022/08/18 11:08:45;;;;;;;12.80;8.75;;;34.00;71.30;;;;;;5065272;28;20041;-80
2022/08/18 11:11:21;;;;;;;13.63;9.73;;;33.90;70.00;;;;;;5045172;28;20106;-79
2022/08/18 11:14:02;;;;;;;9.68;6.28;;;33.80;68.10;;;;;;5062566;28;20037;-79
2022/08/18 11:16:39;;;;;;;8.60;5.82;;;33.80;64.80;;;;;;5064232;28;20083;-79
2022/08/18 11:19:10;;;;;;;9.70;6.38;;;33.80;64.80;;;;;;5080083;28;20041;-81
2022/08/18 11:21:41;;;;;;;8.38;4.90;;;34.00;62.10;;;;;;5067899;28;20116;-80
2022/08/18 11:24:12;;;;;;;8.18;5.10;;;33.90;60.50;;;;;;5045662;28;20052;-79
2022/08/18 11:26:44;;;;;;;10.15;5.55;;;33.60;63.60;;;;;;5071854;28;20434;-79
2022/08/18 11:29:20;;;;;;;17.52;11.10;;;33.60;63.30;;;;;;5082381;28;20060;-80
2022/08/18 11:31:48;;;;;;;8.20;6.35;;;33.80;62.70;;;;;;5067372;28;20044;-78
2022/08/18 11:34:19;;;;;;;19.38;14.02;;;33.90;61.90;;;;;;5067203;28;20059;-80
2022/08/18 11:36:56;;;;;;;12.27;7.57;;;33.90;61.60;;;;;;5072491;28;20041;-79
2022/08/18 11:39:24;;;;;;;10.27;6.13;;;34.00;59.10;;;;;;5072731;28;20077;-81
2022/08/18 11:41:53;;;;;;;15.55;8.15;;;33.90;60.00;;;;;;5065740;28;20055;-82
2022/08/18 11:44:23;;;;;;;13.98;5.47;;;34.00;60.70;;;;;;5081354;28;20051;-80
2022/08/18 11:46:56;;;;;;;9.60;4.85;;;33.90;60.20;;;;;;5072015;28;20102;-82
2022/08/18 11:49:31;;;;;;;11.90;6.07;;;33.90;59.00;;;;;;5084397;28;20075;-82
2022/08/18 11:52:04;;;;;;;12.25;6.38;;;34.10;58.20;;;;;;5094593;28;20489;-81
2022/08/18 11:54:38;;;;;;;8.25;4.88;;;34.10;56.70;;;;;;5062752;28;20044;-81
2022/08/18 11:57:30;;;;;;;7.22;5.82;;;34.30;55.70;;;;;;5082921;28;20060;-80
2022/08/18 11:59:58;;;;;;;8.70;5.25;;;34.40;55.50;;;;;;5096427;28;20063;-79
2022/08/18 12:02:26;;;;;;;13.05;9.20;;;34.50;54.30;;;;;;5091321;28;20052;-79
2022/08/18 12:04:59;;;;;;;12.45;8.23;;;34.50;51.80;;;;;;5082221;28;20040;-81
2022/08/18 12:07:30;;;;;;;7.85;4.47;;;34.50;50.60;;;;;;5082570;28;20072;-79
2022/08/18 12:10:19;;;;;;;5.35;4.55;;;34.50;50.20;;;;;;5076846;28;20053;-80
2022/08/18 12:12:51;;;;;;;8.65;5.38;;;34.40;50.00;;;;;;5067392;28;20048;-79
2022/08/18 12:15:27;;;;;;;10.63;7.18;;;34.40;50.70;;;;;;5062452;28;20048;-80
2022/08/18 12:17:55;;;;;;;55.40;9.35;;;34.40;51.20;;;;;;5070560;28;20033;-80
2022/08/18 12:20:22;;;;;;;10.23;4.78;;;34.40;50.10;;;;;;5080710;28;20032;-78
2022/08/18 12:22:52;;;;;;;9.68;4.85;;;34.50;49.90;;;;;;5080408;28;20100;-79
2022/08/18 12:25:20;;;;;;;9.25;4.43;;;34.50;49.60;;;;;;5079092;28;20092;-79
2022/08/18 12:27:49;;;;;;;10.65;6.90;;;34.50;49.80;;;;;;5059960;28;20102;-79
2022/08/18 12:30:17;;;;;;;9.55;4.80;;;34.50;49.60;;;;;;5077898;28;20116;-79
2022/08/18 12:32:45;;;;;;;8.57;4.57;;;34.50;49.10;;;;;;5078900;28;20434;-79
2022/08/18 12:35:13;;;;;;;10.68;4.95;;;34.50;48.60;;;;;;5079762;28;20047;-80
2022/08/18 12:37:43;;;;;;;9.77;4.97;;;34.40;48.60;;;;;;5078824;28;20045;-82
2022/08/18 12:40:12;;;;;;;9.02;5.68;;;34.40;47.80;;;;;;5079561;28;20044;-81
2022/08/18 12:42:40;;;;;;;7.45;4.70;;;34.50;46.80;;;;;;5079367;28;20059;-81
2022/08/18 12:45:10;;;;;;;8.13;5.25;;;34.50;46.00;;;;;;5057699;28;20083;-80
2022/08/18 12:47:40;;;;;;;6.85;4.15;;;34.40;45.80;;;;;;5095563;28;20040;-81
2022/08/18 12:50:08;;;;;;;6.88;5.05;;;34.40;46.40;;;;;;5079014;28;20037;-80
2022/08/18 12:52:35;;;;;;;9.35;4.30;;;34.50;45.20;;;;;;5062996;28;20163;-80
2022/08/18 12:55:03;;;;;;;8.70;4.57;;;34.60;44.90;;;;;;5079954;28;20045;-80
2022/08/18 12:57:30;;;;;;;9.90;4.90;;;34.50;44.90;;;;;;5066965;28;20080;-80
2022/08/18 12:59:58;;;;;;;8.45;4.03;;;34.60;46.00;;;;;;5075751;28;20044;-80
2022/08/18 13:02:26;;;;;;;12.20;4.90;;;34.70;46.10;;;;;;5096236;28;20036;-77
2022/08/18 13:04:54;;;;;;;11.20;4.60;;;34.70;46.50;;;;;;5092861;28;20044;-80
2022/08/18 13:07:21;;;;;;;11.55;5.38;;;34.60;46.20;;;;;;5083534;28;20411;-80
2022/08/18 13:09:48;;;;;;;8.55;4.38;;;34.50;46.50;;;;;;5082437;28;20049;-78
2022/08/18 13:12:17;;;;;;;6.72;4.38;;;34.50;45.50;;;;;;5064952;28;20052;-80
2022/08/18 13:14:45;;;;;;;12.52;5.60;;;34.50;45.20;;;;;;5082223;28;20064;-81
2022/08/18 13:17:12;;;;;;;13.25;7.03;;;34.50;45.30;;;;;;5081109;28;20036;-80
2022/08/18 13:19:41;;;;;;;8.43;5.65;;;34.70;45.70;;;;;;5061503;28;20480;-80
2022/08/18 13:22:10;;;;;;;12.77;8.38;;;34.60;45.70;;;;;;5072612;28;20505;-79